createdAt,value
2023-03-28T00:01:01.554Z,101919.72
2023-03-28T00:04:03.493Z,101920.59
2023-03-28T00:07:05.708Z,101914.44
2023-03-28T00:10:08.054Z,101914.50
2023-03-28T00:13:10.560Z,101917.16
2023-03-28T00:16:13.329Z,101918.03
2023-03-28T00:19:18.185Z,101922.41
2023-03-28T00:22:21.179Z,101922.44
2023-03-28T00:25:23.073Z,101922.47
2023-03-28T00:28:24.603Z,101921.63
2023-03-28T00:31:26.540Z,101931.25
2023-03-28T00:34:28.154Z,101933.88
2023-03-28T00:37:30.016Z,101939.13
2023-03-28T00:40:38.694Z,101939.16
2023-03-28T00:43:52.138Z,101939.16
2023-03-28T00:46:53.781Z,101945.28
2023-03-28T00:50:00.660Z,101949.69
2023-03-28T00:53:10.446Z,101945.34
2023-03-28T00:56:17.642Z,101953.22
2023-03-28T00:59:23.632Z,101955.06
2023-03-28T01:02:25.714Z,101956.81
2023-03-28T01:05:31.450Z,101962.94
2023-03-28T01:08:37.976Z,101962.06
2023-03-28T01:11:42.058Z,101975.19
2023-03-28T01:14:45.387Z,101972.56
2023-03-28T01:17:48.264Z,101966.41
2023-03-28T01:20:52.739Z,101983.06
2023-03-28T01:24:12.865Z,101983.06
2023-03-28T01:27:41.841Z,101981.31
2023-03-28T01:31:00.341Z,101983.94
2023-03-28T01:34:30.168Z,101991.81
2023-03-28T01:38:05.711Z,101987.47
2023-03-28T01:41:35.562Z,101993.59
2023-03-28T01:44:40.400Z,101984.84
2023-03-28T01:47:48.616Z,101999.75
2023-03-28T01:51:03.865Z,101991.84
2023-03-28T01:54:18.096Z,101981.34
2023-03-28T01:57:24.005Z,101991.84
2023-03-28T02:00:34.330Z,101992.75
2023-03-28T02:03:39.509Z,102000.63
2023-03-28T02:06:46.971Z,101998.91
2023-03-28T02:09:51.430Z,101993.63
2023-03-28T02:13:00.771Z,101994.53
2023-03-28T02:16:05.014Z,101991.06
2023-03-28T02:19:08.549Z,101992.81
2023-03-28T02:22:21.284Z,101985.84
2023-03-28T02:25:22.984Z,101984.09
2023-03-28T02:28:25.855Z,101985.88
2023-03-28T02:31:27.589Z,101995.50
2023-03-28T02:34:29.389Z,101986.81
2023-03-28T02:37:50.814Z,101994.72
2023-03-28T02:41:07.205Z,101999.13
2023-03-28T02:44:39.578Z,102003.53
2023-03-28T02:48:02.955Z,102001.78
2023-03-28T02:51:30.249Z,101986.91
2023-03-28T02:54:49.214Z,101992.16
2023-03-28T02:57:56.062Z,101995.69
2023-03-28T03:00:57.717Z,101993.94
2023-03-28T03:04:00.780Z,101986.94
2023-03-28T03:07:02.920Z,101992.19
2023-03-28T03:10:06.966Z,101993.09
2023-03-28T03:13:08.563Z,101993.97
2023-03-28T03:16:10.721Z,101993.09
2023-03-28T03:19:12.351Z,101994.88
2023-03-28T03:22:21.053Z,101995.72
2023-03-28T03:25:23.103Z,101997.47
2023-03-28T03:28:24.712Z,101999.22
2023-03-28T03:31:26.353Z,101996.59
2023-03-28T03:34:27.995Z,102004.50
2023-03-28T03:37:29.688Z,102000.16
2023-03-28T03:40:31.253Z,102005.44
2023-03-28T03:43:34.287Z,102008.06
2023-03-28T03:46:35.967Z,102009.84
2023-03-28T03:49:38.112Z,102011.59
2023-03-28T03:52:39.811Z,102015.09
2023-03-28T03:55:41.315Z,102016.88
2023-03-28T03:58:43.033Z,102019.53
2023-03-28T04:01:44.575Z,102020.44
2023-03-28T04:04:47.852Z,102027.44
2023-03-28T04:07:49.474Z,102028.34
2023-03-28T04:10:50.999Z,102034.47
2023-03-28T04:13:52.575Z,102030.97
2023-03-28T04:16:54.121Z,102029.22
2023-03-28T04:19:56.403Z,102034.44
2023-03-28T04:23:00.325Z,102037.06
2023-03-28T04:26:02.571Z,102039.66
2023-03-28T04:29:05.273Z,102044.88
2023-03-28T04:32:06.901Z,102055.38
2023-03-28T04:35:08.854Z,102058.84
2023-03-28T04:38:10.506Z,102071.97
2023-03-28T04:41:22.258Z,102076.38
2023-03-28T04:44:23.945Z,102075.50
2023-03-28T04:47:25.561Z,102072.88
2023-03-28T04:50:27.371Z,102075.53
2023-03-28T04:53:28.995Z,102075.56
2023-03-28T04:56:30.542Z,102068.56
2023-03-28T04:59:32.107Z,102074.66
2023-03-28T05:02:33.748Z,102075.53
2023-03-28T05:05:35.579Z,102077.28
2023-03-28T05:08:37.137Z,102079.03
2023-03-28T05:11:39.934Z,102090.41
2023-03-28T05:14:42.018Z,102093.88
2023-03-28T05:17:43.600Z,102103.50
2023-03-28T05:20:45.272Z,102105.72
2023-03-28T05:23:52.011Z,102108.19
2023-03-28T05:26:54.252Z,102108.06
2023-03-28T05:29:56.274Z,102108.81
2023-03-28T05:32:58.747Z,102117.66
2023-03-28T05:36:00.738Z,102124.06
2023-03-28T05:39:02.304Z,102137.41
2023-03-28T05:42:04.222Z,102134.09
2023-03-28T05:45:07.148Z,102150.91
2023-03-28T05:48:08.803Z,102148.31
2023-03-28T05:51:10.393Z,102153.66
2023-03-28T05:54:12.081Z,102147.56
2023-03-28T05:57:13.634Z,102144.09
2023-03-28T06:00:15.915Z,102138.88
2023-03-28T06:03:17.760Z,102139.81
2023-03-28T06:06:20.463Z,102138.13
2023-03-28T06:09:22.409Z,102138.13
2023-03-28T06:12:23.963Z,102144.28
2023-03-28T06:15:25.830Z,102150.44
2023-03-28T06:18:27.591Z,102143.38
2023-03-28T06:21:29.105Z,102154.72
2023-03-28T06:24:30.847Z,102166.13
2023-03-28T06:27:33.282Z,102179.25
2023-03-28T06:30:34.899Z,102185.44
2023-03-28T06:33:37.418Z,102185.47
2023-03-28T06:36:39.045Z,102178.47
2023-03-28T06:39:41.598Z,102171.53
2023-03-28T06:42:43.405Z,102158.47
2023-03-28T06:45:44.982Z,102171.69
2023-03-28T06:48:47.272Z,102177.38
2023-03-28T06:51:48.836Z,102175.38
2023-03-28T06:54:50.384Z,102175.44
2023-03-28T06:57:52.023Z,102167.59
2023-03-28T07:00:54.308Z,102179.00
2023-03-28T07:03:59.646Z,102176.31
2023-03-28T07:07:01.474Z,102185.84
2023-03-28T07:10:03.237Z,102181.34
2023-03-28T07:13:05.596Z,102183.00
2023-03-28T07:16:11.557Z,102181.97
2023-03-28T07:19:13.294Z,102180.06
2023-03-28T07:22:14.797Z,102192.91
2023-03-28T07:25:16.541Z,102191.78
2023-03-28T07:28:18.093Z,102204.72
2023-03-28T07:31:21.211Z,102208.09
2023-03-28T07:34:22.967Z,102213.19
2023-03-28T07:37:24.627Z,102211.28
2023-03-28T07:40:26.180Z,102213.88
2023-03-28T07:43:27.752Z,102215.63
2023-03-28T07:46:29.464Z,102210.31
2023-03-28T07:49:31.100Z,102210.28
2023-03-28T07:52:32.662Z,102217.25
2023-03-28T07:55:52.082Z,102224.31
2023-03-28T07:58:57.008Z,102230.44
2023-03-28T08:01:58.682Z,102222.44
2023-03-28T08:05:00.462Z,102216.97
2023-03-28T08:08:03.640Z,102214.13
2023-03-28T08:11:05.809Z,102220.97
2023-03-28T08:14:10.087Z,102218.25
2023-03-28T08:17:11.685Z,102216.31
2023-03-28T08:20:13.370Z,102226.66
2023-03-28T08:23:15.358Z,102228.25
2023-03-28T08:26:17.054Z,102227.25
2023-03-28T08:29:18.643Z,102227.16
2023-03-28T08:32:20.326Z,102233.25
2023-03-28T08:35:21.856Z,102232.63
2023-03-28T08:38:23.662Z,102238.78
2023-03-28T08:41:34.323Z,102228.78
2023-03-28T08:44:48.672Z,102235.03
2023-03-28T08:47:53.163Z,102232.59
2023-03-28T08:51:15.372Z,102237.06
2023-03-28T08:54:24.340Z,102235.16
2023-03-28T08:57:30.003Z,102230.59
2023-03-28T09:00:34.302Z,102231.25
2023-03-28T09:03:36.445Z,102225.53
2023-03-28T09:06:43.747Z,102221.66
2023-03-28T09:10:13.639Z,102223.34
2023-03-28T09:13:30.395Z,102228.72
2023-03-28T09:17:01.457Z,102234.28
2023-03-28T09:20:15.135Z,102236.34
2023-03-28T09:23:26.775Z,102237.44
2023-03-28T09:26:35.637Z,102235.91
2023-03-28T09:29:39.904Z,102237.69
2023-03-28T09:32:42.574Z,102230.38
2023-03-28T09:35:47.093Z,102237.94
2023-03-28T09:38:59.148Z,102231.34
2023-03-28T09:42:08.138Z,102233.63
2023-03-28T09:45:30.293Z,102238.41
2023-03-28T09:48:35.608Z,102230.97
2023-03-28T09:51:37.490Z,102234.88
2023-03-28T09:54:41.816Z,102237.81
2023-03-28T09:58:01.710Z,102235.41
2023-03-28T10:01:03.510Z,102232.16
2023-03-28T10:04:14.536Z,102240.56
2023-03-28T10:07:27.763Z,102242.81
2023-03-28T10:10:29.754Z,102243.34
2023-03-28T10:13:40.629Z,102237.78
2023-03-28T10:16:43.814Z,102240.53
2023-03-28T10:19:47.412Z,102240.72
2023-03-28T10:22:52.013Z,102223.56
2023-03-28T10:25:54.639Z,102231.94
2023-03-28T10:29:02.320Z,102230.69
2023-03-28T10:32:06.456Z,102232.41
2023-03-28T10:35:27.839Z,102235.56
2023-03-28T10:38:43.407Z,102240.59
2023-03-28T10:41:59.654Z,102233.63
2023-03-28T10:45:02.928Z,102227.09
2023-03-28T10:48:16.694Z,102228.97
2023-03-28T10:51:23.556Z,102230.03
2023-03-28T10:54:33.112Z,102229.41
2023-03-28T10:57:43.859Z,102220.63
2023-03-28T11:01:08.720Z,102214.09
2023-03-28T11:04:11.098Z,102218.38
2023-03-28T11:07:15.643Z,102215.72
2023-03-28T11:10:29.651Z,102212.38
2023-03-28T11:13:31.301Z,102214.28
2023-03-28T11:16:38.588Z,102224.81
2023-03-28T11:19:40.215Z,102205.06
2023-03-28T11:23:10.635Z,102219.56
2023-03-28T11:26:17.108Z,102204.00
2023-03-28T11:29:43.180Z,102207.03
2023-03-28T11:32:52.404Z,102205.69
2023-03-28T11:36:10.303Z,102197.13
2023-03-28T11:39:24.253Z,102203.81
2023-03-28T11:42:31.298Z,102205.13
2023-03-28T11:45:51.074Z,102201.97
2023-03-28T11:49:18.698Z,102203.13
2023-03-28T11:52:28.345Z,102198.50
2023-03-28T11:55:36.603Z,102196.75
2023-03-28T11:58:42.191Z,102195.34
2023-03-28T12:01:55.071Z,102194.78
2023-03-28T12:05:24.961Z,102188.25
2023-03-28T12:08:55.499Z,102187.50
2023-03-28T12:12:06.232Z,102189.06
2023-03-28T12:15:15.684Z,102190.13
2023-03-28T12:18:28.814Z,102186.09
2023-03-28T12:21:47.238Z,102182.88
2023-03-28T12:24:52.586Z,102189.28
2023-03-28T12:28:11.118Z,102188.28
2023-03-28T12:31:21.216Z,102182.78
2023-03-28T12:34:38.339Z,102172.22
2023-03-28T12:37:47.003Z,102171.97
2023-03-28T12:40:59.676Z,102161.22
2023-03-28T12:44:05.644Z,102158.47
2023-03-28T12:47:16.323Z,102153.03
2023-03-28T12:50:17.806Z,102154.75
2023-03-28T12:53:21.984Z,102156.69
2023-03-28T12:56:23.607Z,102155.13
2023-03-28T12:59:40.279Z,102155.13
2023-03-28T13:02:52.075Z,102155.91
2023-03-28T13:06:19.300Z,102154.22
2023-03-28T13:09:49.581Z,102151.91
2023-03-28T13:13:02.832Z,102144.19
2023-03-28T13:16:13.050Z,102140.84
2023-03-28T13:19:18.407Z,102133.06
2023-03-28T13:22:32.834Z,102134.03
2023-03-28T13:25:35.648Z,102122.72
2023-03-28T13:28:41.257Z,102123.63
2023-03-28T13:31:43.618Z,102114.47
2023-03-28T13:34:50.546Z,102115.31
2023-03-28T13:37:52.123Z,102110.78
2023-03-28T13:41:06.521Z,102106.47
2023-03-28T13:44:23.246Z,102099.34
2023-03-28T13:47:45.257Z,102093.31
2023-03-28T13:50:49.462Z,102088.84
2023-03-28T13:53:51.035Z,102092.78
2023-03-28T13:56:53.166Z,102090.47
2023-03-28T13:59:58.747Z,102090.91
2023-03-28T14:03:04.112Z,102090.59
2023-03-28T14:06:14.435Z,102090.44
2023-03-28T14:09:29.264Z,102082.25
2023-03-28T14:12:31.019Z,102075.75
2023-03-28T14:15:39.806Z,102072.69
2023-03-28T14:18:48.125Z,102071.31
2023-03-28T14:21:50.694Z,102065.38
2023-03-28T14:24:56.377Z,102068.38
2023-03-28T14:28:07.379Z,102058.00
2023-03-28T14:31:30.664Z,102056.50
2023-03-28T14:34:34.845Z,102042.66
2023-03-28T14:37:37.439Z,102043.69
2023-03-28T14:40:41.428Z,102034.13
2023-03-28T14:43:43.146Z,102036.84
2023-03-28T14:46:44.782Z,102027.94
2023-03-28T14:49:47.166Z,102023.50
2023-03-28T14:52:49.238Z,102021.63
2023-03-28T14:55:54.507Z,102013.53
2023-03-28T14:59:01.140Z,102006.31
2023-03-28T15:02:05.704Z,101998.25
2023-03-28T15:05:12.321Z,101992.88
2023-03-28T15:08:34.556Z,101989.13
2023-03-28T15:11:38.627Z,101983.00
2023-03-28T15:14:42.802Z,101978.53
2023-03-28T15:17:46.663Z,101978.53
2023-03-28T15:20:52.164Z,101976.94
2023-03-28T15:23:59.954Z,101967.44
2023-03-28T15:27:04.197Z,101962.28
2023-03-28T15:30:13.026Z,101964.06
2023-03-28T15:33:21.222Z,101951.78
2023-03-28T15:36:28.725Z,101949.22
2023-03-28T15:39:35.257Z,101934.22
2023-03-28T15:42:37.168Z,101936.03
2023-03-28T15:45:42.164Z,101936.88
2023-03-28T15:48:44.082Z,101943.81
2023-03-28T15:51:51.528Z,101945.53
2023-03-28T15:54:54.771Z,101943.75
2023-03-28T15:57:56.942Z,101934.19
2023-03-28T16:01:18.751Z,101928.22
2023-03-28T16:04:24.043Z,101929.19
2023-03-28T16:07:27.053Z,101931.94
2023-03-28T16:10:30.042Z,101932.97
2023-03-28T16:13:31.792Z,101926.91
2023-03-28T16:16:33.435Z,101935.03
2023-03-28T16:19:36.902Z,101926.31
2023-03-28T16:22:38.401Z,101932.56
2023-03-28T16:25:43.412Z,101937.91
2023-03-28T16:28:44.931Z,101924.91
2023-03-28T16:31:46.770Z,101924.94
2023-03-28T16:34:48.605Z,101910.00
2023-03-28T16:37:50.205Z,101904.78
2023-03-28T16:40:51.998Z,101896.91
2023-03-28T16:43:54.161Z,101902.31
2023-03-28T16:46:55.765Z,101899.84
2023-03-28T16:49:57.371Z,101895.50
2023-03-28T16:52:58.979Z,101891.22
2023-03-28T16:56:01.222Z,101888.75
2023-03-28T16:59:04.508Z,101883.63
2023-03-28T17:02:07.793Z,101879.25
2023-03-28T17:05:09.646Z,101889.00
2023-03-28T17:08:11.819Z,101881.19
2023-03-28T17:11:13.766Z,101882.19
2023-03-28T17:14:15.710Z,101867.25
2023-03-28T17:17:18.728Z,101859.47
2023-03-28T17:20:20.494Z,101852.56
2023-03-28T17:23:22.055Z,101858.84
2023-03-28T17:26:23.641Z,101857.13
2023-03-28T17:29:25.534Z,101850.22
2023-03-28T17:32:27.401Z,101851.25
2023-03-28T17:35:29.173Z,101846.16
2023-03-28T17:38:30.900Z,101840.19
2023-03-28T17:41:32.492Z,101845.63
2023-03-28T17:44:34.035Z,101841.38
2023-03-28T17:47:35.902Z,101828.16
2023-03-28T17:50:37.534Z,101830.94
2023-03-28T17:53:41.049Z,101827.56
2023-03-28T17:56:42.631Z,101834.69
2023-03-28T17:59:44.634Z,101821.59
2023-03-28T18:02:46.592Z,101827.03
2023-03-28T18:05:55.049Z,101825.34
2023-03-28T18:08:56.780Z,101821.81
2023-03-28T18:11:58.340Z,101830.47
2023-03-28T18:15:01.294Z,101820.34
2023-03-28T18:18:03.457Z,101818.31
2023-03-28T18:21:07.632Z,101820.53
2023-03-28T18:24:09.417Z,101820.44
2023-03-28T18:27:10.992Z,101815.25
2023-03-28T18:30:12.933Z,101809.22
2023-03-28T18:33:14.579Z,101809.22
2023-03-28T18:36:16.117Z,101810.09
2023-03-28T18:39:17.851Z,101811.78
2023-03-28T18:42:19.550Z,101806.56
2023-03-28T18:45:21.233Z,101804.81
2023-03-28T18:48:22.827Z,101798.72
2023-03-28T18:51:25.212Z,101797.06
2023-03-28T18:54:26.760Z,101788.22
2023-03-28T18:57:28.637Z,101788.19
2023-03-28T19:00:30.411Z,101792.56
2023-03-28T19:03:38.497Z,101796.16
2023-03-28T19:06:40.142Z,101788.22
2023-03-28T19:09:42.156Z,101783.06
2023-03-28T19:12:43.823Z,101778.75
2023-03-28T19:15:45.369Z,101774.44
2023-03-28T19:18:47.410Z,101772.78
2023-03-28T19:21:48.969Z,101771.03
2023-03-28T19:24:50.690Z,101771.94
2023-03-28T19:27:52.296Z,101770.22
2023-03-28T19:31:02.530Z,101763.16
2023-03-28T19:34:04.153Z,101767.63
2023-03-28T19:37:05.879Z,101758.84
2023-03-28T19:40:16.111Z,101759.81
2023-03-28T19:43:21.088Z,101754.63
2023-03-28T19:46:33.273Z,101762.56
2023-03-28T19:49:35.594Z,101751.03
2023-03-28T19:52:42.614Z,101751.88
2023-03-28T19:55:51.229Z,101754.53
2023-03-28T19:58:53.245Z,101752.78
2023-03-28T20:01:54.826Z,101744.06
2023-03-28T20:04:57.052Z,101747.69
2023-03-28T20:07:58.827Z,101738.13
2023-03-28T20:11:02.096Z,101738.44
2023-03-28T20:14:03.845Z,101735.16
2023-03-28T20:17:05.488Z,101737.03
2023-03-28T20:20:08.261Z,101731.72
2023-03-28T20:23:11.688Z,101725.44
2023-03-28T20:26:16.470Z,101731.66
2023-03-28T20:29:18.620Z,101725.47
2023-03-28T20:32:20.147Z,101723.81
2023-03-28T20:35:21.729Z,101730.94
2023-03-28T20:38:23.957Z,101729.28
2023-03-28T20:41:26.885Z,101723.19
2023-03-28T20:44:30.601Z,101719.84
2023-03-28T20:47:32.336Z,101721.00
2023-03-28T20:50:34.244Z,101732.66
2023-03-28T20:53:35.803Z,101724.19
2023-03-28T20:56:37.671Z,101728.84
2023-03-28T20:59:40.718Z,101723.13
2023-03-28T21:02:42.585Z,101723.94
2023-03-28T21:05:46.166Z,101718.13
2023-03-28T21:08:50.025Z,101718.72
2023-03-28T21:11:51.690Z,101720.19
2023-03-28T21:14:55.580Z,101713.72
2023-03-28T21:17:57.707Z,101715.19
2023-03-28T21:20:59.504Z,101710.59
2023-03-28T21:24:02.330Z,101701.38
2023-03-28T21:27:03.834Z,101678.78
2023-03-28T21:30:08.180Z,101674.56
2023-03-28T21:33:16.013Z,101677.31
2023-03-28T21:36:19.552Z,101674.84
2023-03-28T21:39:21.632Z,101666.97
2023-03-28T21:42:23.226Z,101654.59
2023-03-28T21:45:24.790Z,101666.13
2023-03-28T21:48:26.350Z,101658.22
2023-03-28T21:51:27.952Z,101660.84
2023-03-28T21:54:29.666Z,101663.56
2023-03-28T21:57:31.414Z,101661.84
2023-03-28T22:00:32.981Z,101668.97
2023-03-28T22:03:37.585Z,101670.81
2023-03-28T22:06:39.158Z,101665.63
2023-03-28T22:09:41.209Z,101665.75
2023-03-28T22:12:46.640Z,101666.59
2023-03-28T22:15:49.629Z,101659.44
2023-03-28T22:18:51.463Z,101648.88
2023-03-28T22:21:53.043Z,101640.13
2023-03-28T22:24:54.828Z,101638.38
2023-03-28T22:27:56.884Z,101630.66
2023-03-28T22:30:58.666Z,101629.00
2023-03-28T22:34:00.326Z,101624.78
2023-03-28T22:37:01.886Z,101623.13
2023-03-28T22:40:06.661Z,101612.84
2023-03-28T22:43:09.106Z,101611.31
2023-03-28T22:46:12.867Z,101608.00
2023-03-28T22:49:22.501Z,101606.50
2023-03-28T22:52:31.614Z,101599.63
2023-03-28T22:55:33.252Z,101605.16
2023-03-28T22:58:34.869Z,101597.41
2023-03-28T23:01:37.391Z,101592.25
2023-03-28T23:04:40.221Z,101590.72
2023-03-28T23:07:41.863Z,101591.72
2023-03-28T23:10:43.816Z,101586.53
2023-03-28T23:13:45.752Z,101583.16
2023-03-28T23:16:47.362Z,101584.91
2023-03-28T23:19:50.208Z,101574.44
2023-03-28T23:22:51.928Z,101564.97
2023-03-28T23:25:53.506Z,101570.25
2023-03-28T23:28:55.131Z,101553.56
2023-03-28T23:31:56.860Z,101555.41
2023-03-28T23:34:58.657Z,101553.72
2023-03-28T23:38:00.182Z,101552.88
2023-03-28T23:41:02.082Z,101557.31
2023-03-28T23:44:04.435Z,101544.25
2023-03-28T23:47:06.175Z,101550.47
2023-03-28T23:50:09.376Z,101540.06
2023-03-28T23:53:11.004Z,101541.03
2023-03-28T23:56:12.579Z,101543.75
2023-03-28T23:59:14.107Z,101536.88
